Terminal Aerodrome Forecast
Issued by NWS Central Illinois

Home | Current Version | Previous Version | Text Only | Print | Product List | Glossary On
Versions: 1 2 3 4 5 6 7 8 9 10 11 12 13 14 15 16 17 18
000
FTUS43 KILX 251739
TAFPIA
TAF
KPIA 251739Z 2518/2618 23014G20KT P6SM SCT025 BKN045
     FM260000 18012KT P6SM BKN250
     FM261100 18009KT 5SM -SHRA VCTS BKN035CB
     FM261500 17009KT P6SM VCTS SCT025CB BKN070=

USA.gov is the U.S. government's official web portal to all federal, state and local government web resources and services.